Latest Weather Observations for Munglinup West

IDW60801

Issued at 6:04 pm WST Monday 26 June 2017 (issued every 30 minutes, with the page automatically refreshed every 10 minutes)

About weather observations | Map of weather stations | Latest weather observations for WA | Other Formats
Station Details ID: 012044 Name: MUNGLINUP WEST Lat: -33.55 Lon: 120.70 Height: 220.0 m
Data from the previous 72 hours. | See also: Recent months at Munglinup West
Date/Time
WST
Temp
°C
App
Temp
°C
Dew
Point
°C
Rel
Hum
%
Delta-T
°C
Wind Press
QNH
hPa
Press
MSL
hPa
Rain since
9am
mm
Dir  Spd
km/h
Gust
km/h
Spd
kts
Gust
kts
26/06:00pm 10.1 8.1 7.3 83 1.3 NNW 7 9 4 5 1024.7 1024.7 0.0
26/05:30pm 11.1 9.5 8.0 81 1.5 N 6 7 3 4 1024.2 1024.3 0.0
26/05:00pm 12.5 12.2 8.8 78 1.9 CALM 0 6 0 3 1024.0 1024.1 0.0
26/04:30pm 13.2 12.8 9.6 79 1.9 W 2 2 1 1 1024.1 1024.2 0.0
26/04:00pm 13.7 12.5 9.6 76 2.1 WSW 6 7 3 4 1024.1 1024.2 0.0
26/03:30pm 13.8 11.8 8.6 71 2.6 WSW 9 13 5 7 1024.2 1024.3 0.0
26/03:00pm 14.1 12.0 8.3 68 2.9 WSW 9 13 5 7 1024.3 1024.4 0.0
26/02:30pm 14.1 12.0 8.3 68 2.9 WSW 9 15 5 8 1024.3 1024.4 0.0
26/02:00pm 14.3 12.7 8.9 70 2.8 W 7 13 4 7 1024.6 1024.6 0.0
26/01:30pm 14.0 12.4 8.8 71 2.7 WNW 7 11 4 6 1024.9 1024.9 0.0
26/01:00pm 13.5 11.5 8.6 72 2.5 W 9 13 5 7 1025.2 1025.2 0.0
26/12:30pm 13.2 10.9 8.9 75 2.2 WSW 11 17 6 9 1025.5 1025.5 0.0
26/12:00pm 13.1 11.9 9.4 78 1.9 NW 6 9 3 5 1025.9 1025.9 0.0
26/11:30am 12.6 10.5 9.6 82 1.5 W 11 15 6 8 1026.3 1026.3 0.0
26/11:00am 12.7 10.9 10.8 88 1.0 W 11 19 6 10 1026.9 1026.9 0.0
26/10:30am 12.5 11.3 11.6 94 0.5 WNW 9 15 5 8 1027.1 1027.1 0.0
26/10:00am 11.6 10.4 11.6 100 0.0 WNW 9 13 5 7 1027.1 1027.1 0.0
26/09:30am 10.9 - - - - NW 7 13 4 7 1027.2 1027.2 0.0
26/09:00am 10.3 - - - - NW 7 11 4 6 1027.1 1027.1 2.8
26/08:30am 9.3 - - - - NW 6 7 3 4 1027.2 1027.2 2.8
26/08:00am 8.9 - - - - NW 7 9 4 5 1026.9 1026.9 2.8
26/07:30am 8.8 - - - - NW 7 9 4 5 1026.8 1026.8 2.8
26/07:00am 8.8 - - - - NW 7 11 4 6 1026.6 1026.6 2.8
26/06:30am 8.7 - - - - NW 7 11 4 6 1026.6 1026.6 2.4
26/06:00am 8.8 - - - - NW 6 9 3 5 1026.5 1026.5 2.0
26/05:30am 8.9 - - - - NW 7 9 4 5 1026.2 1026.2 2.0
26/05:00am 9.0 - - - - WNW 6 11 3 6 1026.2 1026.2 2.0
26/04:30am 9.1 - - - - W 9 13 5 7 1026.2 1026.2 1.8
26/04:00am 9.1 - - - - WNW 7 9 4 5 1026.2 1026.2 1.8
26/03:30am 9.0 - - - - NW 7 11 4 6 1026.2 1026.2 1.6
26/03:00am 8.9 - - - - WNW 6 7 3 4 1026.3 1026.3 1.6
26/02:30am 8.5 6.8 8.5 100 0.0 NNW 7 7 4 4 1026.2 1026.2 1.6
26/02:00am 8.4 6.7 8.4 100 0.0 N 7 9 4 5 1026.2 1026.2 1.6
26/01:30am 8.3 6.8 8.3 100 0.0 NW 6 6 3 3 1026.5 1026.5 1.2
26/01:00am 8.3 6.8 8.3 100 0.0 WNW 6 9 3 5 1026.5 1026.5 1.0
26/12:30am 8.2 6.6 8.2 100 0.0 NW 6 6 3 3 1026.6 1026.6 0.8
26/12:00am 7.9 6.3 7.9 100 0.0 NW 6 7 3 4 1026.7 1026.7 0.8
 
Date/Time
WST
Temp
°C
App
Temp
°C
Dew
Point
°C
Rel
Hum
%
Delta-T
°C
Wind Press
QNH
hPa
Press
MSL
hPa
Rain since
9am
mm
Dir  Spd
km/h
Gust
km/h
Spd
kts
Gust
kts
25/11:30pm 7.3 5.3 7.3 100 0.0 N 7 9 4 5 1026.9 1026.9 0.8
25/11:00pm 7.2 5.4 7.2 100 0.0 NNW 6 7 3 4 1027.0 1027.0 0.8
25/10:30pm 7.6 5.7 7.6 100 0.0 WNW 7 7 4 4 1027.1 1027.1 0.8
25/10:00pm 7.3 5.9 7.3 100 0.0 NW 4 4 2 2 1026.8 1026.8 0.8
25/09:30pm 8.0 6.8 8.0 100 0.0 N 4 4 2 2 1026.8 1026.8 0.8
25/09:00pm 8.8 8.2 8.8 100 0.0 N 2 2 1 1 1026.9 1026.9 0.8
25/08:30pm 8.9 8.7 8.9 100 0.0 CALM 0 2 0 1 1027.0 1027.0 0.8
25/08:00pm 9.7 9.3 9.7 100 0.0 NNW 2 2 1 1 1027.1 1027.1 0.8
25/07:30pm 9.9 9.9 9.9 100 0.0 CALM 0 2 0 1 1027.0 1027.0 0.8
25/07:00pm 9.9 9.2 9.9 100 0.0 WNW 4 6 2 3 1026.8 1026.8 0.8
25/06:30pm 9.5 8.3 9.4 99 0.1 SW 6 6 3 3 1026.7 1026.7 0.2
25/06:00pm 9.3 9.1 9.0 98 0.1 CALM 0 6 0 3 1026.5 1026.5 0.2
25/05:30pm 9.5 8.9 9.0 97 0.2 N 2 2 1 1 1026.3 1026.3 0.2
25/05:00pm 10.4 9.6 9.6 95 0.4 NNE 4 6 2 3 1026.2 1026.2 0.2
25/04:30pm 10.8 9.1 10.0 95 0.4 ENE 9 13 5 7 1026.2 1026.2 0.2
25/04:00pm 11.7 10.6 9.8 88 1.0 ENE 6 9 3 5 1026.3 1026.3 0.2
25/03:30pm 11.7 9.9 9.4 86 1.2 NNE 9 11 5 6 1026.2 1026.2 0.2
25/03:00pm 12.5 11.4 10.6 88 1.0 NNE 7 11 4 6 1026.1 1026.1 0.2
25/02:30pm 12.7 11.8 9.2 79 1.8 E 4 6 2 3 1026.1 1026.1 0.2
25/02:00pm 12.0 9.9 9.9 87 1.1 SE 11 17 6 9 1026.1 1026.1 0.2
25/01:30pm 12.8 11.6 10.2 84 1.4 SSE 7 11 4 6 1026.1 1026.1 0.2
25/01:00pm 12.1 10.8 9.8 86 1.2 S 7 9 4 5 1026.3 1026.3 0.2
25/12:30pm 11.2 10.6 10.3 94 0.5 S 4 6 2 3 1026.7 1026.7 0.2
25/12:00pm 12.0 10.4 10.1 88 1.0 SSW 9 19 5 10 1026.9 1026.9 0.0
25/11:30am 12.6 11.4 9.6 82 1.5 ESE 6 9 3 5 1027.2 1027.2 0.0
25/11:00am 12.5 12.2 10.0 85 1.3 E 2 6 1 3 1027.6 1027.6 0.0
25/10:30am 11.4 10.8 10.3 93 0.6 NE 4 7 2 4 1027.8 1027.9 0.0
25/10:00am 10.0 9.2 9.7 98 0.2 NE 4 6 2 3 1027.9 1028.0 0.0
25/09:30am 10.6 9.9 10.1 97 0.3 S 4 9 2 5 1028.0 1028.1 0.0
25/09:00am 10.0 8.2 9.4 96 0.3 SW 9 11 5 6 1027.8 1027.9 4.2
25/08:30am 9.3 8.0 9.3 100 0.0 SSW 6 7 3 4 1027.5 1027.5 4.2
25/08:00am 9.0 8.8 9.0 100 0.0 CALM 0 0 0 0 1027.1 1027.1 4.2
25/07:30am 8.3 7.2 8.3 100 0.0 SW 4 7 2 4 1027.0 1027.0 4.2
25/07:00am 8.3 7.9 8.3 100 0.0 CALM 0 2 0 1 1026.5 1026.5 4.2
25/06:30am 8.3 7.9 8.3 100 0.0 CALM 0 0 0 0 1026.4 1026.4 4.2
25/06:00am 8.2 7.4 8.2 100 0.0 NW 2 4 1 2 1026.3 1026.3 4.2
25/05:30am 8.3 7.5 8.3 100 0.0 WNW 2 4 1 2 1026.2 1026.2 4.2
25/05:00am 8.5 7.4 8.5 100 0.0 W 4 6 2 3 1026.3 1026.3 4.2
25/04:30am 8.2 6.6 8.2 100 0.0 WNW 6 7 3 4 1026.2 1026.2 4.2
25/04:00am 8.2 6.6 8.2 100 0.0 NW 6 7 3 4 1026.3 1026.3 4.2
25/03:30am 8.5 6.8 8.5 100 0.0 WNW 7 9 4 5 1026.4 1026.4 4.2
25/03:00am 8.7 8.0 8.7 100 0.0 E 2 2 1 1 1026.4 1026.4 4.2
25/02:30am 8.6 7.9 8.6 100 0.0 ENE 2 6 1 3 1026.4 1026.4 4.2
25/02:00am 8.2 7.8 8.2 100 0.0 CALM 0 0 0 0 1026.4 1026.4 4.2
25/01:30am 7.1 6.4 7.1 100 0.0 CALM 0 2 0 1 1026.4 1026.4 4.2
25/01:00am 7.9 6.7 7.9 100 0.0 E 4 4 2 2 1026.4 1026.4 4.2
25/12:30am 8.8 8.2 8.8 100 0.0 ESE 2 4 1 2 1026.4 1026.4 4.2
25/12:00am 9.1 7.6 9.1 100 0.0 S 7 11 4 6 1026.7 1026.7 4.2
 
Date/Time
WST
Temp
°C
App
Temp
°C
Dew
Point
°C
Rel
Hum
%
Delta-T
°C
Wind Press
QNH
hPa
Press
MSL
hPa
Rain since
9am
mm
Dir  Spd
km/h
Gust
km/h
Spd
kts
Gust
kts
24/11:30pm 8.9 7.3 8.9 100 0.0 S 7 11 4 6 1026.7 1026.7 4.2
24/11:00pm 8.8 7.2 8.8 100 0.0 SSW 7 9 4 5 1026.7 1026.7 4.2
24/10:30pm 9.6 8.8 9.6 100 0.0 SSW 4 6 2 3 1026.7 1026.7 4.2
24/10:00pm 9.6 8.4 9.6 100 0.0 S 6 7 3 4 1026.6 1026.6 4.2
24/09:30pm 9.2 7.9 9.2 100 0.0 SE 6 6 3 3 1026.4 1026.4 4.2
24/09:00pm 9.2 8.3 9.2 100 0.0 SE 4 6 2 3 1026.5 1026.5 4.2
24/08:30pm 9.1 7.6 9.1 100 0.0 ESE 7 9 4 5 1026.3 1026.3 4.2
24/08:00pm 8.3 6.2 8.3 100 0.0 SSE 9 11 5 6 1026.1 1026.1 4.2
24/07:30pm 8.8 8.5 8.8 100 0.0 CALM 0 0 0 0 1025.9 1025.9 4.0
24/07:00pm 9.6 8.8 9.6 100 0.0 SW 4 6 2 3 1025.9 1025.9 4.0
24/06:30pm 10.0 9.3 10.0 100 0.0 S 4 6 2 3 1025.8 1025.8 4.0
24/06:00pm 10.3 9.1 10.3 100 0.0 SSE 7 13 4 7 1025.6 1025.6 4.0
24/05:30pm 10.4 8.1 10.4 100 0.0 SSE 13 20 7 11 1025.3 1025.3 4.0
24/05:00pm 10.6 8.0 10.6 100 0.0 SSE 15 22 8 12 1025.1 1025.1 3.2
24/04:30pm 11.2 9.4 11.0 99 0.1 S 11 20 6 11 1024.8 1024.8 1.8
24/04:00pm 11.9 10.6 11.3 96 0.3 SSW 9 11 5 6 1024.7 1024.7 1.2
24/03:30pm 12.1 10.5 11.5 96 0.3 SSE 11 17 6 9 1024.6 1024.6 1.2
24/03:00pm 11.9 10.6 11.4 97 0.3 S 9 13 5 7 1024.6 1024.6 1.2
24/02:30pm 11.2 9.8 10.9 98 0.2 S 9 19 5 10 1024.6 1024.6 1.2
24/02:00pm 11.8 9.3 10.9 94 0.5 S 15 20 8 11 1024.6 1024.6 0.4
24/01:30pm 13.7 12.9 10.9 83 1.5 SE 6 7 3 4 1024.6 1024.6 0.0
24/01:00pm 13.0 11.9 10.7 86 1.2 SSE 7 11 4 6 1025.0 1025.0 0.0
24/12:30pm 12.6 10.5 11.0 90 0.8 S 13 17 7 9 1025.2 1025.2 0.0
24/12:00pm 12.4 9.5 11.1 92 0.7 SSW 17 20 9 11 1025.5 1025.5 0.0
24/11:30am 12.5 10.3 10.7 89 0.9 SW 13 17 7 9 1025.9 1025.9 0.0
24/11:00am 13.7 12.2 10.5 81 1.7 SW 9 13 5 7 1026.2 1026.2 0.0
24/10:30am 13.7 13.1 10.5 81 1.7 SSW 4 9 2 5 1026.5 1026.5 0.0
24/10:00am 13.3 13.1 10.5 83 1.5 WSW 2 6 1 3 1026.7 1026.7 0.0
24/09:30am 12.3 11.4 10.5 89 0.9 WSW 6 6 3 3 1026.7 1026.7 0.0
24/09:00am 10.7 10.6 10.7 100 0.0 W 2 4 1 2 1026.7 1026.7 6.2
24/08:30am 10.4 9.8 10.4 100 0.0 N 4 4 2 2 1026.4 1026.4 6.2
24/08:00am 9.4 9.3 9.4 100 0.0 CALM 0 0 0 0 1026.1 1026.1 6.2
24/07:30am 8.9 7.5 8.9 100 0.0 SSW 6 7 3 4 1026.0 1026.0 6.2
24/07:00am 9.4 8.5 9.3 99 0.0 WSW 4 6 2 3 1025.8 1025.8 6.2
24/06:30am 9.7 8.9 9.6 99 0.1 W 4 6 2 3 1025.4 1025.4 6.2
24/06:00am 9.7 8.5 9.4 98 0.1 SW 6 7 3 4 1025.3 1025.3 6.2
24/05:30am 9.7 8.8 9.2 97 0.3 SW 4 6 2 3 1025.2 1025.2 6.2
24/05:00am 9.5 8.9 9.0 97 0.2 W 2 7 1 4 1025.2 1025.2 6.2
24/04:30am 9.6 9.0 9.1 97 0.2 WSW 2 4 1 2 1025.2 1025.2 6.2
24/04:00am 9.5 8.5 8.9 96 0.3 NW 4 4 2 2 1025.1 1025.1 6.2
24/03:30am 9.8 8.8 8.9 94 0.4 WNW 4 6 2 3 1025.2 1025.2 6.2
24/03:00am 9.6 8.5 8.5 93 0.5 NNW 4 6 2 3 1025.2 1025.2 6.2
24/02:30am 9.9 9.2 8.7 92 0.6 SE 2 6 1 3 1025.2 1025.2 6.2
24/02:00am 10.2 9.1 8.5 89 0.8 ESE 4 4 2 2 1025.4 1025.4 6.2
24/01:30am 10.4 8.6 8.0 85 1.2 ESE 7 7 4 4 1025.3 1025.3 6.2
24/01:00am 10.1 8.4 8.2 88 0.9 ESE 7 11 4 6 1025.2 1025.2 6.2
24/12:30am 9.4 7.8 8.6 95 0.4 SE 7 9 4 5 1025.4 1025.4 6.2
24/12:00am 8.8 7.2 7.9 94 0.4 ESE 6 6 3 3 1025.3 1025.3 6.2
 
Date/Time
WST
Temp
°C
App
Temp
°C
Dew
Point
°C
Rel
Hum
%
Delta-T
°C
Wind Press
QNH
hPa
Press
MSL
hPa
Rain since
9am
mm
Dir  Spd
km/h
Gust
km/h
Spd
kts
Gust
kts
23/11:30pm 9.9 8.4 9.0 94 0.4 SE 7 9 4 5 1025.5 1025.5 6.2
23/11:00pm 10.3 9.2 9.8 97 0.3 SE 6 7 3 4 1025.6 1025.6 6.2
23/10:30pm 10.4 9.3 10.1 98 0.2 SSE 6 7 3 4 1025.6 1025.6 6.2
23/10:00pm 10.5 9.9 10.3 99 0.1 SSE 4 6 2 3 1025.5 1025.5 6.2
23/09:30pm 10.8 9.9 10.6 99 0.1 S 6 6 3 3 1025.6 1025.6 6.2
23/09:00pm 10.8 9.7 10.6 99 0.1 SE 7 9 4 5 1025.5 1025.5 6.2
23/08:30pm 10.8 9.3 10.6 99 0.1 SE 9 11 5 6 1025.5 1025.5 6.2
23/08:00pm 10.8 9.7 10.6 99 0.1 SE 7 11 4 6 1025.3 1025.3 6.2
23/07:30pm 10.8 9.3 10.6 99 0.1 SE 9 13 5 7 1025.2 1025.2 6.2
23/07:00pm 11.0 8.4 10.8 99 0.1 SSE 15 26 8 14 1025.1 1025.1 6.2
23/06:30pm 11.1 7.6 10.9 99 0.1 SE 20 30 11 16 1024.7 1024.7 6.2

Other Formats:

Comma delimited format used in spreadsheet applications
http://www.bom.gov.au/fwo/IDW60801/IDW60801.95644.axf

JavaScript Object Notation format (JSON) in row-major order
http://www.bom.gov.au/fwo/IDW60801/IDW60801.95644.json